Time;durP1;ratioP1;P1;durP2;ratioP2;P2;SDS_P1;SDS_P2;PMS_P1;PMS_P2;Temp;Humidity;BMP_temperature;BMP_pressure;BME280_temperature;BME280_humidity;BME280_pressure;Samples;Min_cycle;Max_cycle;Signal;HPM_P1;HPM_P2
2022/06/02 00:01:08;;;;;;;;;0.50;0.50;;;;;;;;5077710;27;45557;-75
2022/06/02 00:03:40;;;;;;;;;1.00;1.00;;;;;;;;5074287;27;45487;-76
2022/06/02 00:06:26;;;;;;;;;0.00;0.00;;;;;;;;5075775;28;45208;-75
2022/06/02 00:09:00;;;;;;;;;0.00;0.00;;;;;;;;5074204;28;45587;-75
2022/06/02 00:11:35;;;;;;;;;1.00;1.00;;;;;;;;5084782;27;46257;-75
2022/06/02 00:14:12;;;;;;;;;2.00;2.00;;;;;;;;5069723;27;45525;-75
2022/06/02 00:16:56;;;;;;;;;0.00;0.00;;;;;;;;5061651;28;45397;-75
2022/06/02 00:19:41;;;;;;;;;1.00;1.00;;;;;;;;5072072;28;45431;-75
2022/06/02 00:22:06;;;;;;;;;0.00;0.00;;;;;;;;5062018;28;47080;-75
2022/06/02 00:24:34;;;;;;;;;0.50;0.50;;;;;;;;5061882;28;45620;-75
2022/06/02 00:27:04;;;;;;;;;0.33;0.33;;;;;;;;5069094;27;45374;-75
2022/06/02 00:29:46;;;;;;;;;1.00;1.00;;;;;;;;5085249;27;45488;-75
2022/06/02 00:32:25;;;;;;;;;0.00;0.00;;;;;;;;5075585;27;45446;-75
2022/06/02 00:34:51;;;;;;;;;0.67;0.67;;;;;;;;5073061;28;45379;-74
2022/06/02 00:37:35;;;;;;;;;0.75;0.75;;;;;;;;5076312;27;45508;-75
2022/06/02 00:40:01;;;;;;;;;1.00;1.00;;;;;;;;5062997;28;45445;-75
2022/06/02 00:42:35;;;;;;;;;1.00;1.00;;;;;;;;5063069;28;46196;-75
2022/06/02 00:45:00;;;;;;;;;0.00;0.00;;;;;;;;5073537;27;45406;-75
2022/06/02 00:47:44;;;;;;;;;1.00;1.00;;;;;;;;5075196;28;45409;-75
2022/06/02 00:50:09;;;;;;;;;0.33;0.33;;;;;;;;5074496;28;45474;-75
2022/06/02 00:53:04;;;;;;;;;2.50;1.00;;;;;;;;5077058;27;46259;-75
2022/06/02 00:58:43;;;;;;;;;0.00;0.00;;;;;;;;5075635;28;45271;-75
2022/06/02 01:01:11;;;;;;;;;1.00;1.00;;;;;;;;5076103;27;45276;-75
2022/06/02 01:03:55;;;;;;;;;0.67;0.67;;;;;;;;5073773;27;46290;-75
2022/06/02 01:06:23;;;;;;;;;0.00;0.00;;;;;;;;5077115;27;45350;-73
2022/06/02 01:08:49;;;;;;;;;1.00;1.00;;;;;;;;5070281;27;45417;-74
2022/06/02 01:11:34;;;;;;;;;0.67;0.67;;;;;;;;5073946;27;45516;-74
2022/06/02 01:14:02;;;;;;;;;0.67;0.67;;;;;;;;5080329;27;46291;-74
2022/06/02 01:16:34;;;;;;;;;0.00;0.00;;;;;;;;5077873;27;45288;-74
2022/06/02 01:19:14;;;;;;;;;0.00;0.00;;;;;;;;5064979;27;45492;-75
2022/06/02 01:21:51;;;;;;;;;0.00;0.00;;;;;;;;5060992;28;45496;-74
2022/06/02 01:24:54;;;;;;;;;0.75;0.75;;;;;;;;5068202;27;47375;-74
2022/06/02 01:27:35;;;;;;;;;1.00;0.33;;;;;;;;5050855;28;45457;-74
2022/06/02 01:30:13;;;;;;;;;0.00;0.00;;;;;;;;5052821;28;45496;-74
2022/06/02 01:32:38;;;;;;;;;0.00;0.00;;;;;;;;5053032;28;45627;-74
2022/06/02 01:35:06;;;;;;;;;0.00;0.00;;;;;;;;5035223;28;47054;-75
2022/06/02 01:37:39;;;;;;;;;1.00;1.00;;;;;;;;5053619;28;45377;-74
2022/06/02 01:40:04;;;;;;;;;1.00;1.00;;;;;;;;5057870;28;45431;-74
2022/06/02 01:42:48;;;;;;;;;0.00;0.00;;;;;;;;5058929;28;45313;-73
2022/06/02 01:45:31;;;;;;;;;0.50;0.50;;;;;;;;5050479;28;46153;-74
2022/06/02 01:48:10;;;;;;;;;0.00;0.00;;;;;;;;5052741;28;45391;-73
2022/06/02 01:50:35;;;;;;;;;0.00;0.00;;;;;;;;5056244;28;45531;-74
2022/06/02 01:53:18;;;;;;;;;0.00;0.00;;;;;;;;5052975;28;45400;-74
2022/06/02 01:55:57;;;;;;;;;0.33;0.33;;;;;;;;5056698;28;46207;-74
2022/06/02 01:58:41;;;;;;;;;1.00;1.00;;;;;;;;5067121;28;45267;-74
2022/06/02 02:01:38;;;;;;;;;0.00;0.00;;;;;;;;5069664;27;45599;-74
2022/06/02 02:04:04;;;;;;;;;1.00;1.00;;;;;;;;5052235;28;45562;-74
2022/06/02 02:06:33;;;;;;;;;0.67;0.67;;;;;;;;5051733;28;46903;-74
2022/06/02 02:09:10;;;;;;;;;1.50;1.50;;;;;;;;5049053;28;45343;-74
2022/06/02 02:11:41;;;;;;;;;0.67;0.67;;;;;;;;5053562;28;45412;-74
2022/06/02 02:14:12;;;;;;;;;0.00;0.00;;;;;;;;5053376;28;45406;-74
2022/06/02 02:17:10;;;;;;;;;1.00;1.00;;;;;;;;5053035;28;46247;-74
2022/06/02 02:19:38;;;;;;;;;1.00;1.00;;;;;;;;4996074;28;45515;-73
2022/06/02 02:22:11;;;;;;;;;0.00;0.00;;;;;;;;4991338;28;45524;-73
2022/06/02 02:24:40;;;;;;;;;1.00;1.00;;;;;;;;4992027;28;45522;-74
2022/06/02 02:27:25;;;;;;;;;0.67;0.67;;;;;;;;4991813;28;45370;-74
2022/06/02 02:30:00;;;;;;;;;0.33;0.33;;;;;;;;5002522;28;45657;-74
2022/06/02 02:32:44;;;;;;;;;0.00;0.00;;;;;;;;4977775;28;45477;-74
2022/06/02 02:35:13;;;;;;;;;0.00;0.00;;;;;;;;4975632;28;45993;-73
2022/06/02 02:37:52;;;;;;;;;0.00;0.00;;;;;;;;4996278;28;45515;-74
2022/06/02 02:40:17;;;;;;;;;3.00;0.50;;;;;;;;4987769;28;45392;-74
2022/06/02 02:42:51;;;;;;;;;0.00;0.00;;;;;;;;4999775;28;45639;-74
2022/06/02 02:45:32;;;;;;;;;1.00;1.00;;;;;;;;5001326;28;45531;-73
2022/06/02 02:48:04;;;;;;;;;0.00;0.00;;;;;;;;4998520;28;46318;-76
2022/06/02 02:50:34;;;;;;;;;0.67;0.67;;;;;;;;5002094;28;45553;-73
2022/06/02 02:53:05;;;;;;;;;2.00;1.00;;;;;;;;5015734;28;45354;-75
2022/06/02 02:55:33;;;;;;;;;2.00;1.00;;;;;;;;5036049;28;45356;-76
2022/06/02 02:58:20;;;;;;;;;1.00;1.00;;;;;;;;5072614;27;47144;-74
2022/06/02 03:00:52;;;;;;;;;1.00;1.00;;;;;;;;5080777;27;46470;-74
2022/06/02 03:03:26;;;;;;;;;1.00;1.00;;;;;;;;5076465;27;45383;-75
2022/06/02 03:06:14;;;;;;;;;0.00;0.00;;;;;;;;5072633;28;47616;-74
2022/06/02 03:08:58;;;;;;;;;1.67;1.67;;;;;;;;5059186;27;47005;-74
2022/06/02 03:11:29;;;;;;;;;0.67;0.67;;;;;;;;5060396;28;45413;-74
2022/06/02 03:14:14;;;;;;;;;0.00;0.00;;;;;;;;5078684;27;45394;-75
2022/06/02 03:16:40;;;;;;;;;2.50;1.00;;;;;;;;5055213;28;45206;-75
2022/06/02 03:19:16;;;;;;;;;1.00;1.00;;;;;;;;5061246;28;45414;-74
2022/06/02 03:22:10;;;;;;;;;1.00;0.00;;;;;;;;5059456;28;45309;-75
2022/06/02 03:24:44;;;;;;;;;1.33;1.33;;;;;;;;4989102;28;45494;-75
2022/06/02 03:27:18;;;;;;;;;1.00;1.00;;;;;;;;4986049;28;45306;-76
2022/06/02 03:29:49;;;;;;;;;0.00;0.00;;;;;;;;4978880;28;46188;-75
2022/06/02 03:32:17;;;;;;;;;1.33;1.00;;;;;;;;4976922;28;45383;-74
2022/06/02 03:34:42;;;;;;;;;1.00;1.00;;;;;;;;4980658;28;45396;-73
2022/06/02 03:37:16;;;;;;;;;0.00;0.00;;;;;;;;4978206;28;45402;-75
2022/06/02 03:39:49;;;;;;;;;1.00;1.00;;;;;;;;4995954;28;48188;-71
2022/06/02 03:42:14;;;;;;;;;1.00;1.00;;;;;;;;4986131;28;45522;-72
2022/06/02 03:45:09;;;;;;;;;2.00;1.00;;;;;;;;4976830;28;45577;-75
2022/06/02 03:47:52;;;;;;;;;0.33;0.33;;;;;;;;4953835;28;45497;-75
2022/06/02 03:50:28;;;;;;;;;1.00;1.00;;;;;;;;4953907;28;47185;-73
2022/06/02 03:53:08;;;;;;;;;0.00;0.00;;;;;;;;4969940;28;45814;-75
2022/06/02 03:55:51;;;;;;;;;1.67;1.00;;;;;;;;4957198;28;45355;-75
2022/06/02 03:58:34;;;;;;;;;1.00;1.00;;;;;;;;4955944;28;45464;-73
2022/06/02 04:01:03;;;;;;;;;1.00;1.00;;;;;;;;5003030;28;46463;-75
2022/06/02 04:03:28;;;;;;;;;0.00;0.00;;;;;;;;5047623;28;46044;-75
2022/06/02 04:06:29;;;;;;;;;0.25;0.25;;;;;;;;5048270;28;45420;-75
2022/06/02 04:08:54;;;;;;;;;1.00;1.00;;;;;;;;4994011;28;45601;-75
2022/06/02 04:13:37;;;;;;;;;0.33;0.33;;;;;;;;4994417;28;46119;-76
2022/06/02 04:14:23;;;;;;;;;0.33;0.33;;;;;;;;4996275;28;45803;-75
2022/06/02 04:16:48;;;;;;;;;0.00;0.00;;;;;;;;5006526;28;45358;-75
2022/06/02 04:22:23;;;;;;;;;0.67;0.67;;;;;;;;4995191;28;45848;-74
2022/06/02 04:24:57;;;;;;;;;0.67;0.67;;;;;;;;5011108;28;45560;-74
2022/06/02 04:27:26;;;;;;;;;0.00;0.00;;;;;;;;5021629;28;45395;-74
2022/06/02 04:30:14;;;;;;;;;1.00;1.00;;;;;;;;5025211;28;45338;-75
2022/06/02 04:32:57;;;;;;;;;0.33;0.33;;;;;;;;5016193;28;45546;-75
2022/06/02 04:35:22;;;;;;;;;1.00;1.00;;;;;;;;4998969;28;45462;-75
2022/06/02 04:37:47;;;;;;;;;0.67;0.67;;;;;;;;5017890;28;45339;-75
2022/06/02 04:40:22;;;;;;;;;0.33;0.33;;;;;;;;5013210;28;45598;-75
2022/06/02 04:43:06;;;;;;;;;0.00;0.00;;;;;;;;5039034;28;47369;-74
2022/06/02 04:45:49;;;;;;;;;1.00;1.00;;;;;;;;5072498;27;45493;-75
2022/06/02 04:48:20;;;;;;;;;1.00;1.00;;;;;;;;5076282;27;45363;-75
2022/06/02 04:51:00;;;;;;;;;0.33;0.33;;;;;;;;5074869;27;45819;-74
2022/06/02 04:53:25;;;;;;;;;0.75;0.75;;;;;;;;5076954;27;46254;-74
2022/06/02 04:56:09;;;;;;;;;1.00;1.00;;;;;;;;5076865;27;45358;-74
2022/06/02 04:58:52;;;;;;;;;1.00;1.00;;;;;;;;5064326;28;45382;-74
2022/06/02 05:01:23;;;;;;;;;1.00;1.00;;;;;;;;5082731;27;45592;-74
2022/06/02 05:04:01;;;;;;;;;1.00;0.00;;;;;;;;5077002;27;46175;-74
2022/06/02 05:06:44;;;;;;;;;1.00;1.00;;;;;;;;5084778;27;45455;-75
2022/06/02 05:09:22;;;;;;;;;1.00;1.00;;;;;;;;5073807;27;45565;-74
2022/06/02 05:11:59;;;;;;;;;0.00;0.00;;;;;;;;5070999;28;45464;-73
2022/06/02 05:14:31;;;;;;;;;1.00;1.00;;;;;;;;5064279;27;46189;-75
2022/06/02 05:17:08;;;;;;;;;1.00;1.00;;;;;;;;5072148;27;45386;-74
2022/06/02 05:19:52;;;;;;;;;1.00;1.00;;;;;;;;5060161;28;45584;-74
2022/06/02 05:22:23;;;;;;;;;1.00;1.00;;;;;;;;5063420;28;45457;-74
2022/06/02 05:25:06;;;;;;;;;1.00;1.00;;;;;;;;5061605;28;46160;-74
2022/06/02 05:27:34;;;;;;;;;1.00;1.00;;;;;;;;5072090;27;45309;-74
2022/06/02 05:30:05;;;;;;;;;2.00;2.00;;;;;;;;5071202;28;45528;-74
2022/06/02 05:32:49;;;;;;;;;0.33;0.33;;;;;;;;5058344;28;45682;-74
2022/06/02 05:35:23;;;;;;;;;1.00;1.00;;;;;;;;5073119;28;46312;-74
2022/06/02 05:37:48;;;;;;;;;2.00;1.00;;;;;;;;5072578;28;45449;-74
2022/06/02 05:40:32;;;;;;;;;1.25;1.25;;;;;;;;5069675;28;45211;-74
2022/06/02 05:43:07;;;;;;;;;1.00;1.00;;;;;;;;5069288;28;45605;-74
2022/06/02 05:45:51;;;;;;;;;1.00;1.00;;;;;;;;5079168;27;46412;-74
2022/06/02 05:48:34;;;;;;;;;1.00;1.00;;;;;;;;5068122;27;45366;-74
2022/06/02 05:51:14;;;;;;;;;1.00;1.00;;;;;;;;5064753;27;45438;-74
2022/06/02 05:53:58;;;;;;;;;1.33;1.00;;;;;;;;5072814;28;45556;-74
2022/06/02 05:56:47;;;;;;;;;1.00;1.00;;;;;;;;5057685;28;47317;-75
2022/06/02 05:59:24;;;;;;;;;1.67;1.00;;;;;;;;5068807;27;45488;-75
2022/06/02 06:02:15;;;;;;;;;1.00;1.00;;;;;;;;5071980;28;45536;-74
2022/06/02 06:04:47;;;;;;;;;1.00;1.00;;;;;;;;5057115;27;45741;-74
2022/06/02 06:07:23;;;;;;;;;0.00;0.00;;;;;;;;5068861;28;45512;-74
2022/06/02 06:09:48;;;;;;;;;1.00;1.00;;;;;;;;5064138;28;45356;-74
2022/06/02 06:12:36;;;;;;;;;0.20;0.20;;;;;;;;5064941;27;45388;-74
2022/06/02 06:15:01;;;;;;;;;1.00;1.00;;;;;;;;5080352;27;45405;-74
2022/06/02 06:17:34;;;;;;;;;1.00;1.00;;;;;;;;5057809;28;45634;-74
2022/06/02 06:20:15;;;;;;;;;1.00;1.00;;;;;;;;5072021;28;50645;-74
2022/06/02 06:22:49;;;;;;;;;2.00;1.00;;;;;;;;5060022;28;45425;-74
2022/06/02 06:25:14;;;;;;;;;2.33;1.00;;;;;;;;5060569;28;45592;-74
2022/06/02 06:27:42;;;;;;;;;1.00;1.00;;;;;;;;5069151;27;45960;-74
2022/06/02 06:30:13;;;;;;;;;1.25;1.25;;;;;;;;5068763;28;45525;-74
2022/06/02 06:32:57;;;;;;;;;1.25;1.25;;;;;;;;5074549;28;45397;-74
2022/06/02 06:35:28;;;;;;;;;1.00;1.00;;;;;;;;5060475;28;45308;-74
2022/06/02 06:38:06;;;;;;;;;2.00;2.00;;;;;;;;5069613;27;46225;-74
2022/06/02 06:40:40;;;;;;;;;0.00;0.00;;;;;;;;5082118;27;45447;-74
2022/06/02 06:43:14;;;;;;;;;1.00;1.00;;;;;;;;5073163;27;45271;-74
2022/06/02 06:45:54;;;;;;;;;1.25;1.25;;;;;;;;5069094;28;45263;-75
2022/06/02 06:48:23;;;;;;;;;1.00;1.00;;;;;;;;5064129;28;45334;-74
2022/06/02 06:50:48;;;;;;;;;2.00;1.00;;;;;;;;5075679;28;45389;-74
2022/06/02 06:53:17;;;;;;;;;1.00;1.00;;;;;;;;5060672;28;45286;-74
2022/06/02 06:56:05;;;;;;;;;1.75;1.75;;;;;;;;5074169;28;45472;-74
2022/06/02 06:58:38;;;;;;;;;2.00;1.00;;;;;;;;5074331;28;46312;-74
2022/06/02 07:01:18;;;;;;;;;0.25;0.25;;;;;;;;5072060;28;45492;-74
2022/06/02 07:04:09;;;;;;;;;0.50;0.00;;;;;;;;5073893;27;45438;-74
2022/06/02 07:06:47;;;;;;;;;1.00;1.00;;;;;;;;5020263;28;45423;-75
2022/06/02 07:09:17;;;;;;;;;0.25;0.25;;;;;;;;5015114;28;46147;-74
2022/06/02 07:14:43;;;;;;;;;1.00;1.00;;;;;;;;5001622;28;45515;-75
2022/06/02 07:17:26;;;;;;;;;1.00;1.00;;;;;;;;5013759;28;45338;-75
2022/06/02 07:19:52;;;;;;;;;1.00;1.00;;;;;;;;5014466;28;45351;-75
2022/06/02 07:22:23;;;;;;;;;1.50;1.50;;;;;;;;5003811;28;45488;-73
2022/06/02 07:25:14;;;;;;;;;1.25;1.25;;;;;;;;5022998;28;45574;-74
2022/06/02 07:27:43;;;;;;;;;0.00;0.00;;;;;;;;5015043;28;45417;-74
2022/06/02 07:30:23;;;;;;;;;1.00;1.00;;;;;;;;5014640;28;47136;-74
2022/06/02 07:33:02;;;;;;;;;1.00;1.00;;;;;;;;5023925;28;45495;-75
2022/06/02 07:35:27;;;;;;;;;1.00;1.00;;;;;;;;5000040;28;45587;-75
2022/06/02 07:37:58;;;;;;;;;1.00;1.00;;;;;;;;5015578;28;45568;-75
2022/06/02 07:40:41;;;;;;;;;2.33;2.00;;;;;;;;5014145;28;48183;-75
2022/06/02 07:43:25;;;;;;;;;1.25;1.25;;;;;;;;5038799;28;46285;-74
2022/06/02 07:46:05;;;;;;;;;1.25;1.25;;;;;;;;5072456;27;45370;-74
2022/06/02 07:48:40;;;;;;;;;1.25;1.25;;;;;;;;5082184;27;45864;-74
2022/06/02 07:51:17;;;;;;;;;1.00;1.00;;;;;;;;5074998;27;47272;-75
2022/06/02 07:54:01;;;;;;;;;3.75;1.00;;;;;;;;5073741;28;48758;-74
2022/06/02 07:56:29;;;;;;;;;0.00;0.00;;;;;;;;5059493;28;45614;-75
2022/06/02 07:59:08;;;;;;;;;2.00;1.00;;;;;;;;5060611;28;45526;-74
2022/06/02 08:01:52;;;;;;;;;2.00;2.00;;;;;;;;5061967;28;45212;-75
2022/06/02 08:04:28;;;;;;;;;1.00;1.00;;;;;;;;5071283;28;45462;-75
2022/06/02 08:07:29;;;;;;;;;1.00;1.00;;;;;;;;5064661;28;45338;-75
2022/06/02 08:10:03;;;;;;;;;1.00;1.00;;;;;;;;5051604;28;45498;-75
2022/06/02 08:12:40;;;;;;;;;1.00;1.00;;;;;;;;5055285;28;46081;-75
2022/06/02 08:15:08;;;;;;;;;1.33;0.67;;;;;;;;5061802;28;45603;-75
2022/06/02 08:17:35;;;;;;;;;1.00;1.00;;;;;;;;5054287;28;45528;-75
2022/06/02 08:20:01;;;;;;;;;1.00;1.00;;;;;;;;5055213;28;45495;-75
2022/06/02 08:22:44;;;;;;;;;0.75;0.75;;;;;;;;5060112;28;45711;-74
2022/06/02 08:25:13;;;;;;;;;2.50;2.50;;;;;;;;5054502;28;45286;-74
2022/06/02 08:27:44;;;;;;;;;1.00;1.00;;;;;;;;5054123;28;45744;-74
2022/06/02 08:30:18;;;;;;;;;0.00;0.00;;;;;;;;5054168;28;45488;-75
2022/06/02 08:32:52;;;;;;;;;2.25;0.75;;;;;;;;5054048;28;46565;-75
2022/06/02 08:35:36;;;;;;;;;0.75;0.75;;;;;;;;5050967;28;45478;-75
2022/06/02 08:38:01;;;;;;;;;2.00;2.00;;;;;;;;5051182;28;45389;-75
2022/06/02 08:40:28;;;;;;;;;1.00;1.00;;;;;;;;5054710;28;45490;-75
2022/06/02 08:43:04;;;;;;;;;1.67;1.67;;;;;;;;5055768;28;46323;-75
2022/06/02 08:45:29;;;;;;;;;2.00;1.00;;;;;;;;5067182;28;45533;-75
2022/06/02 08:48:08;;;;;;;;;1.00;1.00;;;;;;;;5059566;28;45403;-75
2022/06/02 08:50:36;;;;;;;;;1.33;1.00;;;;;;;;5073482;27;45620;-75
2022/06/02 08:53:25;;;;;;;;;2.00;2.00;;;;;;;;5072870;28;47444;-75
2022/06/02 08:56:11;;;;;;;;;1.00;1.00;;;;;;;;5072835;28;45287;-74
2022/06/02 08:58:39;;;;;;;;;1.67;0.67;;;;;;;;5061343;28;45343;-74
2022/06/02 09:01:27;;;;;;;;;1.00;1.00;;;;;;;;5075930;27;45280;-75
2022/06/02 09:04:10;;;;;;;;;1.00;1.00;;;;;;;;5052378;28;45470;-74
2022/06/02 09:06:54;;;;;;;;;1.00;1.00;;;;;;;;5044561;28;45451;-75
2022/06/02 09:09:28;;;;;;;;;1.00;1.00;;;;;;;;5050647;28;45430;-75
2022/06/02 09:12:03;;;;;;;;;1.00;1.00;;;;;;;;5053201;28;45602;-75
2022/06/02 09:14:46;;;;;;;;;1.33;0.67;;;;;;;;5023868;28;47484;-75
2022/06/02 09:17:15;;;;;;;;;1.00;1.00;;;;;;;;5036977;28;45363;-74
2022/06/02 09:20:00;;;;;;;;;3.00;2.00;;;;;;;;5064989;28;45408;-75
2022/06/02 09:22:44;;;;;;;;;0.00;0.00;;;;;;;;5052733;28;45520;-75
2022/06/02 09:25:17;;;;;;;;;1.50;1.50;;;;;;;;5050110;28;46322;-75
2022/06/02 09:27:45;;;;;;;;;1.25;1.25;;;;;;;;5052389;28;45367;-75
2022/06/02 09:30:15;;;;;;;;;2.33;1.33;;;;;;;;5059891;28;45604;-75
2022/06/02 09:32:44;;;;;;;;;1.00;1.00;;;;;;;;5052854;28;45432;-75
2022/06/02 09:35:20;;;;;;;;;1.00;1.00;;;;;;;;5034780;28;46293;-75
2022/06/02 09:37:45;;;;;;;;;2.00;2.00;;;;;;;;5053893;28;45523;-75
2022/06/02 09:40:43;;;;;;;;;1.00;1.00;;;;;;;;5056831;28;45518;-75
2022/06/02 09:43:08;;;;;;;;;1.00;1.00;;;;;;;;5052640;28;45341;-75
2022/06/02 09:45:57;;;;;;;;;1.00;1.00;;;;;;;;5052220;28;46298;-75
2022/06/02 09:48:33;;;;;;;;;2.50;2.00;;;;;;;;5053108;28;45418;-75
2022/06/02 09:51:17;;;;;;;;;1.25;1.25;;;;;;;;5046683;28;45440;-75
2022/06/02 09:54:01;;;;;;;;;1.00;1.00;;;;;;;;5049936;28;45490;-75
2022/06/02 09:56:29;;;;;;;;;1.50;1.25;;;;;;;;5051783;28;46331;-75
2022/06/02 09:58:55;;;;;;;;;1.00;1.00;;;;;;;;5052477;28;45473;-75
2022/06/02 10:01:39;;;;;;;;;2.00;1.00;;;;;;;;5053087;28;48334;-74
2022/06/02 10:04:26;;;;;;;;;2.00;2.00;;;;;;;;5052265;28;45372;-74
2022/06/02 10:07:00;;;;;;;;;1.75;1.75;;;;;;;;5049086;28;46508;-74
2022/06/02 10:09:38;;;;;;;;;1.75;1.75;;;;;;;;5055242;28;45670;-74
2022/06/02 10:12:54;;;;;;;;;1.00;1.00;;;;;;;;5060553;28;45602;-73
2022/06/02 10:15:00;;;;;;;;;2.00;2.00;;;;;;;;5051464;28;45444;-74
2022/06/02 10:17:34;;;;;;;;;2.00;2.00;;;;;;;;5052030;28;46062;-74
2022/06/02 10:20:18;;;;;;;;;1.00;1.00;;;;;;;;5071777;28;45329;-74
2022/06/02 10:22:50;;;;;;;;;1.00;1.00;;;;;;;;5060168;28;45217;-74
2022/06/02 10:25:18;;;;;;;;;0.75;0.75;;;;;;;;5068882;28;45593;-74
2022/06/02 10:28:03;;;;;;;;;1.00;1.00;;;;;;;;5064421;28;46333;-74
2022/06/02 10:30:34;;;;;;;;;1.50;1.50;;;;;;;;5062197;28;45485;-74
2022/06/02 10:33:13;;;;;;;;;1.67;1.67;;;;;;;;5068604;28;45366;-74
2022/06/02 10:35:40;;;;;;;;;1.50;1.50;;;;;;;;5073372;28;45590;-74
2022/06/02 10:38:38;;;;;;;;;1.00;1.00;;;;;;;;5057145;28;46914;-74
2022/06/02 10:41:13;;;;;;;;;3.00;1.00;;;;;;;;5050331;28;45670;-74
2022/06/02 10:43:56;;;;;;;;;1.33;1.00;;;;;;;;5038561;28;45420;-74
2022/06/02 10:46:21;;;;;;;;;1.00;1.00;;;;;;;;5059177;28;45521;-74
2022/06/02 10:49:07;;;;;;;;;1.00;1.00;;;;;;;;5053861;28;45514;-74
2022/06/02 10:51:51;;;;;;;;;1.00;1.00;;;;;;;;5053570;28;45484;-74
2022/06/02 10:54:22;;;;;;;;;2.00;2.00;;;;;;;;5057626;28;45427;-75
2022/06/02 10:57:14;;;;;;;;;1.33;1.33;;;;;;;;5051652;28;45432;-74
2022/06/02 10:59:58;;;;;;;;;1.00;1.00;;;;;;;;5006375;28;46954;-74
2022/06/02 11:02:29;;;;;;;;;1.00;1.00;;;;;;;;4990991;28;45771;-74
2022/06/02 11:05:13;;;;;;;;;2.00;2.00;;;;;;;;4995346;28;45465;-74
2022/06/02 11:07:57;;;;;;;;;0.33;0.33;;;;;;;;4996268;28;45526;-73
2022/06/02 11:10:22;;;;;;;;;2.00;2.00;;;;;;;;4997989;28;46057;-74
2022/06/02 11:12:57;;;;;;;;;2.00;2.00;;;;;;;;5004405;28;45567;-74
2022/06/02 11:15:37;;;;;;;;;1.00;1.00;;;;;;;;5001106;28;45476;-74
2022/06/02 11:18:23;;;;;;;;;1.33;1.00;;;;;;;;5012477;28;45429;-73
2022/06/02 11:21:01;;;;;;;;;2.00;2.00;;;;;;;;5002814;28;46575;-74
2022/06/02 11:23:35;;;;;;;;;1.25;1.25;;;;;;;;5015156;28;45469;-74
2022/06/02 11:26:15;;;;;;;;;1.00;1.00;;;;;;;;5014994;28;45410;-74
2022/06/02 11:28:43;;;;;;;;;1.00;1.00;;;;;;;;5000551;28;45415;-74
2022/06/02 11:31:21;;;;;;;;;1.75;1.00;;;;;;;;5003081;28;46281;-74
2022/06/02 11:33:46;;;;;;;;;2.00;2.00;;;;;;;;5003274;28;45440;-75
2022/06/02 11:36:42;;;;;;;;;1.33;1.33;;;;;;;;5026144;28;45380;-73
2022/06/02 11:39:13;;;;;;;;;2.00;2.00;;;;;;;;5054122;28;45480;-74
2022/06/02 11:41:45;;;;;;;;;1.25;1.25;;;;;;;;5054584;28;45507;-74
2022/06/02 11:44:12;;;;;;;;;1.50;1.00;;;;;;;;5053592;28;45427;-74
2022/06/02 11:46:38;;;;;;;;;1.00;1.00;;;;;;;;5054069;28;45382;-74
2022/06/02 11:49:03;;;;;;;;;1.25;1.25;;;;;;;;5057951;28;45552;-73
2022/06/02 11:51:47;;;;;;;;;1.00;1.00;;;;;;;;5054563;28;46360;-74
2022/06/02 11:54:28;;;;;;;;;1.25;1.25;;;;;;;;5051618;28;45423;-73
2022/06/02 11:56:56;;;;;;;;;1.00;0.50;;;;;;;;5054483;28;45492;-74
2022/06/02 11:59:40;;;;;;;;;1.50;1.50;;;;;;;;5054572;28;45454;-72
2022/06/02 12:02:08;;;;;;;;;1.00;1.00;;;;;;;;5053101;28;46708;-74
2022/06/02 12:04:39;;;;;;;;;1.00;1.00;;;;;;;;5053464;28;45505;-74
2022/06/02 12:07:25;;;;;;;;;2.00;1.33;;;;;;;;5034559;28;45445;-74
2022/06/02 12:10:02;;;;;;;;;1.00;1.00;;;;;;;;4994107;28;45485;-74
2022/06/02 12:12:30;;;;;;;;;1.00;1.00;;;;;;;;4994373;28;46173;-73
2022/06/02 12:15:07;;;;;;;;;1.00;1.00;;;;;;;;5002487;28;45432;-74
2022/06/02 12:17:49;;;;;;;;;2.00;2.00;;;;;;;;5014367;28;45520;-74
2022/06/02 12:20:18;;;;;;;;;1.00;1.00;;;;;;;;5013994;28;45825;-74
2022/06/02 12:23:00;;;;;;;;;1.00;1.00;;;;;;;;5015261;28;45478;-74
2022/06/02 12:25:25;;;;;;;;;2.50;1.00;;;;;;;;5016272;28;45460;-74
2022/06/02 12:28:15;;;;;;;;;1.00;1.00;;;;;;;;5014067;28;45608;-74
2022/06/02 12:30:50;;;;;;;;;1.00;1.00;;;;;;;;5014859;28;45442;-74
2022/06/02 12:33:27;;;;;;;;;1.00;1.00;;;;;;;;5015220;28;46290;-73
2022/06/02 12:36:18;;;;;;;;;1.00;1.00;;;;;;;;5025109;28;45461;-74
2022/06/02 12:38:46;;;;;;;;;0.50;0.50;;;;;;;;5016168;28;45303;-74
2022/06/02 12:41:19;;;;;;;;;3.50;1.25;;;;;;;;5015731;28;45249;-73
2022/06/02 12:43:56;;;;;;;;;1.50;1.00;;;;;;;;5014578;28;46179;-73
2022/06/02 12:46:33;;;;;;;;;1.00;1.00;;;;;;;;5024885;28;45212;-74
2022/06/02 12:49:07;;;;;;;;;2.00;2.00;;;;;;;;5067734;28;45402;-73
2022/06/02 12:51:46;;;;;;;;;1.00;1.00;;;;;;;;5069881;28;45600;-74
2022/06/02 12:54:14;;;;;;;;;2.00;2.00;;;;;;;;5071362;27;47007;-74
2022/06/02 12:56:42;;;;;;;;;0.75;0.75;;;;;;;;5071958;28;46276;-74
2022/06/02 12:59:16;;;;;;;;;1.00;1.00;;;;;;;;5073061;28;49327;-73
2022/06/02 13:01:59;;;;;;;;;1.25;1.25;;;;;;;;5072789;28;45475;-74
2022/06/02 13:04:43;;;;;;;;;1.25;1.00;;;;;;;;5071137;28;46474;-74
2022/06/02 13:07:26;;;;;;;;;1.00;1.00;;;;;;;;5075488;27;45557;-74
2022/06/02 13:09:54;;;;;;;;;2.75;2.75;;;;;;;;5070272;27;45431;-74
2022/06/02 13:12:23;;;;;;;;;2.00;1.00;;;;;;;;5069098;28;45537;-74
2022/06/02 13:14:48;;;;;;;;;1.00;1.00;;;;;;;;5060708;27;45344;-74
2022/06/02 13:17:19;;;;;;;;;1.00;1.00;;;;;;;;5072555;28;45545;-75
2022/06/02 13:19:56;;;;;;;;;2.00;2.00;;;;;;;;5061681;27;45268;-74
2022/06/02 13:22:48;;;;;;;;;1.00;1.00;;;;;;;;5060733;28;45609;-74
2022/06/02 13:25:22;;;;;;;;;2.00;2.00;;;;;;;;5052301;28;46924;-73
2022/06/02 13:27:50;;;;;;;;;0.00;0.00;;;;;;;;5052426;28;45491;-73
2022/06/02 13:30:15;;;;;;;;;1.25;1.00;;;;;;;;5052993;28;45431;-73
2022/06/02 13:32:59;;;;;;;;;1.50;1.50;;;;;;;;5052916;28;45539;-74
2022/06/02 13:35:42;;;;;;;;;1.75;1.75;;;;;;;;5053059;28;45552;-73
2022/06/02 13:38:23;;;;;;;;;1.00;1.00;;;;;;;;5051957;28;45486;-74
2022/06/02 13:41:10;;;;;;;;;1.00;1.00;;;;;;;;5048981;28;45640;-73
2022/06/02 13:43:38;;;;;;;;;1.00;1.00;;;;;;;;5052022;28;45479;-74
2022/06/02 13:46:15;;;;;;;;;1.33;1.33;;;;;;;;5052437;28;47010;-73
2022/06/02 13:49:00;;;;;;;;;1.00;1.00;;;;;;;;5052433;28;45426;-73
2022/06/02 13:51:41;;;;;;;;;1.00;1.00;;;;;;;;5049836;28;45376;-74
2022/06/02 14:00:07;;;;;;;;;1.00;1.00;;;;;;;;5049849;28;45548;-73
2022/06/02 14:02:47;;;;;;;;;1.25;1.25;;;;;;;;5056506;28;45437;-73
2022/06/02 14:05:25;;;;;;;;;4.00;1.00;;;;;;;;5065408;27;45520;-73
2022/06/02 14:07:53;;;;;;;;;2.50;1.00;;;;;;;;5072019;28;45404;-73
2022/06/02 14:10:18;;;;;;;;;2.00;2.00;;;;;;;;5069173;28;45314;-74
2022/06/02 14:13:02;;;;;;;;;3.50;2.25;;;;;;;;5065561;27;45454;-74
2022/06/02 14:15:40;;;;;;;;;1.00;1.00;;;;;;;;5064235;27;45415;-74
2022/06/02 14:18:18;;;;;;;;;2.00;2.00;;;;;;;;5061590;27;46374;-74
2022/06/02 14:20:52;;;;;;;;;1.50;1.00;;;;;;;;5058721;28;45269;-74
2022/06/02 14:23:17;;;;;;;;;1.00;1.00;;;;;;;;5055852;28;45331;-74
2022/06/02 14:26:05;;;;;;;;;2.00;2.00;;;;;;;;5059736;28;45618;-73
2022/06/02 14:28:40;;;;;;;;;1.00;1.00;;;;;;;;5079641;27;46072;-73
2022/06/02 14:31:21;;;;;;;;;1.25;1.25;;;;;;;;5077596;27;45502;-73
2022/06/02 14:33:51;;;;;;;;;1.00;1.00;;;;;;;;5074708;27;45261;-73
2022/06/02 14:36:42;;;;;;;;;1.00;1.00;;;;;;;;5068802;28;45615;-74
2022/06/02 14:39:13;;;;;;;;;1.00;1.00;;;;;;;;5066658;28;46489;-74
2022/06/02 14:41:57;;;;;;;;;1.50;1.25;;;;;;;;5073700;27;45422;-74
2022/06/02 14:44:35;;;;;;;;;0.00;0.00;;;;;;;;5057623;28;45532;-73
2022/06/02 14:47:19;;;;;;;;;1.00;1.00;;;;;;;;5071750;28;45498;-74
2022/06/02 14:50:06;;;;;;;;;0.00;0.00;;;;;;;;5076492;27;47287;-73
2022/06/02 14:52:41;;;;;;;;;2.00;2.00;;;;;;;;5078048;27;45414;-74
2022/06/02 14:55:21;;;;;;;;;2.75;2.75;;;;;;;;5073178;27;45444;-73
2022/06/02 14:58:05;;;;;;;;;2.00;2.00;;;;;;;;5072224;28;45474;-73
2022/06/02 15:00:35;;;;;;;;;2.00;2.00;;;;;;;;5067996;28;46391;-73
2022/06/02 15:03:00;;;;;;;;;1.00;1.00;;;;;;;;5061312;28;45417;-74
2022/06/02 15:05:32;;;;;;;;;2.00;2.00;;;;;;;;5086500;27;45532;-74
2022/06/02 15:08:06;;;;;;;;;1.50;1.50;;;;;;;;5061646;28;45507;-74
2022/06/02 15:10:40;;;;;;;;;1.00;1.00;;;;;;;;5073955;28;47219;-74
2022/06/02 15:13:28;;;;;;;;;2.67;1.00;;;;;;;;5062230;27;45351;-74
2022/06/02 15:15:53;;;;;;;;;1.00;1.00;;;;;;;;5067985;27;45465;-74
2022/06/02 15:18:18;;;;;;;;;1.00;1.00;;;;;;;;5063656;28;45351;-74
2022/06/02 15:20:47;;;;;;;;;1.50;1.50;;;;;;;;5072942;28;47075;-74
2022/06/02 15:23:30;;;;;;;;;1.00;1.00;;;;;;;;5074828;28;45482;-74
2022/06/02 15:25:55;;;;;;;;;1.00;1.00;;;;;;;;5074557;27;45382;-74
2022/06/02 15:28:47;;;;;;;;;1.25;1.25;;;;;;;;5072690;28;45509;-73
2022/06/02 15:31:12;;;;;;;;;1.00;1.00;;;;;;;;5054552;28;46119;-74
2022/06/02 15:33:56;;;;;;;;;1.00;1.00;;;;;;;;5054572;28;45329;-74
2022/06/02 15:36:39;;;;;;;;;1.00;1.00;;;;;;;;5053225;28;45538;-74
2022/06/02 15:39:17;;;;;;;;;1.00;1.00;;;;;;;;5054213;28;45548;-74
2022/06/02 15:42:01;;;;;;;;;1.00;1.00;;;;;;;;5051710;28;46225;-73
2022/06/02 15:44:44;;;;;;;;;1.00;1.00;;;;;;;;5051822;28;45516;-74
2022/06/02 15:47:14;;;;;;;;;1.75;1.00;;;;;;;;5054766;28;45491;-74
2022/06/02 15:50:07;;;;;;;;;1.00;1.00;;;;;;;;5055742;28;45435;-74
2022/06/02 15:52:51;;;;;;;;;1.50;1.50;;;;;;;;5052921;28;46226;-74